Time;durP1;ratioP1;P1;durP2;ratioP2;P2;SDS_P1;SDS_P2;PMS_P1;PMS_P2;Temp;Humidity;BMP_temperature;BMP_pressure;BME280_temperature;BME280_humidity;BME280_pressure;Samples;Min_cycle;Max_cycle;Signal;HPM_P1;HPM_P2
2022/11/27 00:01:37;;;;;;;;;;;;;;;9.00;68.78;101678.72;5380390;32;34938;-63
2022/11/27 00:04:39;;;;;;;;;;;;;;;8.23;71.09;101684.72;5341713;32;36994;-63
2022/11/27 00:07:41;;;;;;;;;;;;;;;9.06;68.92;101679.50;5345900;32;34838;-72
2022/11/27 00:10:43;;;;;;;;;;;;;;;9.18;66.96;101687.25;5363580;32;35460;-64
2022/11/27 00:13:45;;;;;;;;;;;;;;;8.41;71.09;101691.59;5347210;32;35014;-63
2022/11/27 00:16:47;;;;;;;;;;;;;;;9.13;68.45;101686.41;5362974;32;34381;-63
2022/11/27 00:19:48;;;;;;;;;;;;;;;8.73;70.41;101686.03;5327778;32;35350;-74
2022/11/27 00:22:50;;;;;;;;;;;;;;;9.31;67.70;101680.06;5358280;32;35395;-63
2022/11/27 00:25:52;;;;;;;;;;;;;;;8.94;68.97;101679.66;5334644;32;34379;-63
2022/11/27 00:28:54;;;;;;;;;;;;;;;9.31;67.40;101669.59;5331883;32;35286;-73
2022/11/27 00:31:56;;;;;;;;;;;;;;;8.57;68.78;101669.59;5349556;32;34278;-62
2022/11/27 00:34:58;;;;;;;;;;;;;;;9.44;66.60;101679.03;5332847;32;34394;-72
2022/11/27 00:38:00;;;;;;;;;;;;;;;9.21;66.71;101681.97;5358799;32;34571;-73
2022/11/27 00:41:05;;;;;;;;;;;;;;;8.77;67.79;101682.50;5342450;32;44710;-72
2022/11/27 00:44:07;;;;;;;;;;;;;;;8.64;68.80;101676.53;5371609;32;35533;-75
2022/11/27 00:47:09;;;;;;;;;;;;;;;9.14;66.10;101682.03;5368219;32;34457;-73
2022/11/27 00:50:11;;;;;;;;;;;;;;;8.64;67.07;101694.00;5364771;32;36091;-64
2022/11/27 00:53:13;;;;;;;;;;;;;;;8.57;66.90;101695.81;5367598;32;35500;-62
2022/11/27 00:56:16;;;;;;;;;;;;;;;8.64;67.96;101694.00;5364390;32;34932;-73
2022/11/27 00:59:18;;;;;;;;;;;;;;;8.88;66.24;101690.22;5382539;32;35114;-72
2022/11/27 01:02:19;;;;;;;;;;;;;;;8.47;67.52;101693.28;5365565;32;35412;-64
2022/11/27 01:05:21;;;;;;;;;;;;;;;8.24;68.97;101698.69;5361836;32;35366;-73
2022/11/27 01:08:23;;;;;;;;;;;;;;;7.59;71.07;101699.16;5350123;32;35112;-63
2022/11/27 01:11:26;;;;;;;;;;;;;;;8.34;69.47;101697.75;5345895;32;35467;-62
2022/11/27 01:14:28;;;;;;;;;;;;;;;8.68;67.30;101695.69;5348535;32;34496;-63
2022/11/27 01:17:30;;;;;;;;;;;;;;;8.58;67.28;101692.31;5345686;32;34996;-63
2022/11/27 01:20:32;;;;;;;;;;;;;;;6.87;74.55;101701.22;5325743;32;43487;-72
2022/11/27 01:23:34;;;;;;;;;;;;;;;8.14;70.02;101695.28;5345609;32;34875;-62
2022/11/27 01:26:36;;;;;;;;;;;;;;;8.28;68.36;101692.56;5357348;32;34921;-73
2022/11/27 01:29:37;;;;;;;;;;;;;;;8.54;66.78;101682.72;5351577;32;34932;-73
2022/11/27 01:32:39;;;;;;;;;;;;;;;8.22;67.81;101692.59;5344594;32;35065;-62
2022/11/27 01:35:41;;;;;;;;;;;;;;;8.40;67.24;101692.47;5362895;32;34207;-62
2022/11/27 01:38:43;;;;;;;;;;;;;;;7.70;69.82;101695.63;5342275;32;35695;-62
2022/11/27 01:41:45;;;;;;;;;;;;;;;8.00;68.92;101686.69;5359072;32;34875;-74
2022/11/27 01:44:49;;;;;;;;;;;;;;;7.84;68.86;101696.38;5350780;32;34829;-73
2022/11/27 01:47:52;;;;;;;;;;;;;;;7.93;70.08;101700.72;5373388;32;35408;-73
2022/11/27 01:50:54;;;;;;;;;;;;;;;8.41;67.56;101695.06;5372888;32;36362;-73
2022/11/27 01:53:55;;;;;;;;;;;;;;;8.02;69.08;101690.16;5362356;32;35246;-73
2022/11/27 01:56:58;;;;;;;;;;;;;;;7.87;69.19;101699.00;5359904;32;35156;-62
2022/11/27 02:00:00;;;;;;;;;;;;;;;8.55;66.60;101696.69;5331697;32;35895;-63
2022/11/27 02:03:02;;;;;;;;;;;;;;;8.31;66.90;101701.25;5360617;32;44347;-72
2022/11/27 02:06:04;;;;;;;;;;;;;;;8.32;67.66;101710.00;5346033;32;35555;-74
2022/11/27 02:09:06;;;;;;;;;;;;;;;8.32;68.05;101702.13;5354611;32;34887;-73
2022/11/27 02:12:11;;;;;;;;;;;;;;;7.93;69.30;101708.56;5353977;32;34829;-63
2022/11/27 02:15:12;;;;;;;;;;;;;;;7.98;69.71;101712.84;5344742;32;35003;-62
2022/11/27 02:18:20;;;;;;;;;;;;;;;8.54;67.12;101700.19;5358156;32;34932;-62
2022/11/27 02:21:25;;;;;;;;;;;;;;;7.95;67.88;101705.03;5317067;32;35586;-72
2022/11/27 02:24:41;;;;;;;;;;;;;;;7.91;69.28;101716.41;5360960;32;34838;-62
2022/11/27 02:27:52;;;;;;;;;;;;;;;8.18;68.52;101703.97;5346880;32;35048;-63
2022/11/27 02:30:56;;;;;;;;;;;;;;;8.09;68.68;101694.44;5345169;32;35513;-63
2022/11/27 02:34:01;;;;;;;;;;;;;;;7.92;69.00;101697.22;5347747;32;34890;-63
2022/11/27 02:37:05;;;;;;;;;;;;;;;8.09;68.42;101699.69;5341406;32;45383;-72
2022/11/27 02:40:12;;;;;;;;;;;;;;;8.02;68.74;101696.25;5357706;32;35457;-73
2022/11/27 02:43:15;;;;;;;;;;;;;;;7.99;68.95;101713.75;5343620;32;35937;-74
2022/11/27 02:46:18;;;;;;;;;;;;;;;7.81;69.92;101718.22;5355443;32;34925;-74
2022/11/27 02:49:19;;;;;;;;;;;;;;;7.23;71.50;101712.44;5348198;32;36749;-70
2022/11/27 02:52:22;;;;;;;;;;;;;;;7.11;73.98;101717.72;5362153;32;35012;-62
2022/11/27 02:55:25;;;;;;;;;;;;;;;6.98;73.25;101716.88;5378095;32;34842;-73
2022/11/27 02:58:27;;;;;;;;;;;;;;;6.37;75.89;101723.06;5334105;32;34802;-62
2022/11/27 03:01:30;;;;;;;;;;;;;;;6.63;75.44;101719.56;5346549;32;34967;-63
2022/11/27 03:04:34;;;;;;;;;;;;;;;6.67;75.12;101723.94;5344405;32;44759;-63
2022/11/27 03:07:43;;;;;;;;;;;;;;;6.84;74.69;101716.94;5346591;32;34348;-73
2022/11/27 03:10:47;;;;;;;;;;;;;;;6.47;75.63;101711.75;5368924;32;37067;-62
2022/11/27 03:13:50;;;;;;;;;;;;;;;6.63;75.71;101716.94;5351053;32;35329;-73
2022/11/27 03:16:58;;;;;;;;;;;;;;;6.17;77.65;101723.09;5382015;32;34350;-73
2022/11/27 03:20:11;;;;;;;;;;;;;;;6.60;76.02;101720.44;5346470;32;34938;-71
2022/11/27 03:23:12;;;;;;;;;;;;;;;6.63;76.14;101719.56;5361496;32;36180;-63
2022/11/27 03:26:14;;;;;;;;;;;;;;;6.24;76.68;101703.94;5372096;32;34485;-73
2022/11/27 03:29:17;;;;;;;;;;;;;;;6.53;76.61;101716.13;5351831;32;35063;-63
2022/11/27 03:32:19;;;;;;;;;;;;;;;6.61;76.32;101726.53;5380984;32;35434;-73
2022/11/27 03:35:22;;;;;;;;;;;;;;;6.34;77.31;101724.84;5365532;32;34952;-72
2022/11/27 03:38:24;;;;;;;;;;;;;;;6.44;77.15;101723.94;5363795;32;35371;-75
2022/11/27 03:41:38;;;;;;;;;;;;;;;6.49;77.03;101723.06;5359849;32;35475;-73
2022/11/27 03:44:43;;;;;;;;;;;;;;;6.29;77.13;101730.06;5351055;32;45743;-61
2022/11/27 03:47:54;;;;;;;;;;;;;;;6.56;76.41;101726.53;5360052;32;35042;-73
2022/11/27 03:51:15;;;;;;;;;;;;;;;6.86;74.92;101728.25;5347801;32;34643;-63
2022/11/27 03:54:35;;;;;;;;;;;;;;;7.58;71.63;101726.19;5362700;32;35152;-63
2022/11/27 03:57:42;;;;;;;;;;;;;;;8.17;68.60;101728.44;5346883;32;48266;-74
2022/11/27 04:00:43;;;;;;;;;;;;;;;7.37;71.16;101733.31;5332449;32;34764;-71
2022/11/27 04:03:45;;;;;;;;;;;;;;;6.54;75.65;101733.53;5348657;32;35192;-73
2022/11/27 04:06:47;;;;;;;;;;;;;;;6.69;75.41;101730.88;5345461;32;35451;-73
2022/11/27 04:09:49;;;;;;;;;;;;;;;6.44;76.31;101726.56;5362795;32;35189;-63
2022/11/27 04:12:51;;;;;;;;;;;;;;;6.75;76.29;101728.25;5347289;32;35300;-63
2022/11/27 04:15:53;;;;;;;;;;;;;;;6.65;76.09;101728.28;5362246;32;34620;-63
2022/11/27 04:18:55;;;;;;;;;;;;;;;7.07;74.59;101722.94;5320414;32;37108;-74
2022/11/27 04:21:59;;;;;;;;;;;;;;;7.31;74.24;101724.59;5336670;32;34748;-64
2022/11/27 04:25:01;;;;;;;;;;;;;;;7.58;71.83;101723.59;5362526;32;43268;-62
2022/11/27 04:28:03;;;;;;;;;;;;;;;7.58;71.98;101727.94;5347248;32;34986;-63
2022/11/27 04:31:04;;;;;;;;;;;;;;;8.00;70.13;101724.22;5347934;32;35540;-73
2022/11/27 04:34:06;;;;;;;;;;;;;;;8.26;68.28;101721.37;5347247;32;34475;-63
2022/11/27 04:37:08;;;;;;;;;;;;;;;7.28;72.04;101732.47;5345919;32;35555;-62
2022/11/27 04:40:10;;;;;;;;;;;;;;;6.75;75.64;101730.88;5343530;32;35420;-72
2022/11/27 04:43:12;;;;;;;;;;;;;;;6.70;76.07;101730.03;5351419;32;35254;-63
2022/11/27 04:46:14;;;;;;;;;;;;;;;7.04;75.29;101733.41;5367078;32;34903;-74
2022/11/27 04:49:16;;;;;;;;;;;;;;;6.87;76.39;101723.88;5350950;32;34435;-74
2022/11/27 04:52:18;;;;;;;;;;;;;;;7.33;74.01;101720.22;5380071;32;35738;-63
2022/11/27 04:55:19;;;;;;;;;;;;;;;6.94;75.43;101725.59;5364851;32;34377;-62
2022/11/27 04:58:21;;;;;;;;;;;;;;;6.60;75.75;101717.84;5380782;32;34843;-62
2022/11/27 05:01:23;;;;;;;;;;;;;;;6.81;76.26;101719.53;5366399;32;34394;-73
2022/11/27 05:04:25;;;;;;;;;;;;;;;7.15;74.71;101714.19;5354964;32;35480;-62
2022/11/27 05:07:27;;;;;;;;;;;;;;;7.02;74.57;101714.28;5359395;32;35435;-62
2022/11/27 05:10:29;;;;;;;;;;;;;;;7.28;75.17;101710.69;5365545;32;34436;-61
2022/11/27 05:13:31;;;;;;;;;;;;;;;7.14;73.91;101712.47;5380986;32;45774;-62
2022/11/27 05:16:33;;;;;;;;;;;;;;;6.59;77.88;101717.84;5364982;32;34412;-63
2022/11/27 05:19:35;;;;;;;;;;;;;;;6.76;76.41;101719.56;5362428;32;35245;-73
2022/11/27 05:22:37;;;;;;;;;;;;;;;6.70;78.49;101713.50;5354351;32;35622;-74
2022/11/27 05:25:38;;;;;;;;;;;;;;;6.93;77.35;101709.06;5363881;32;35008;-73
2022/11/27 05:28:40;;;;;;;;;;;;;;;7.19;76.94;101718.53;5381183;32;35372;-72
2022/11/27 05:31:42;;;;;;;;;;;;;;;7.19;76.95;101718.53;5363942;32;35288;-61
2022/11/27 05:34:44;;;;;;;;;;;;;;;7.54;74.29;101715.78;5380948;32;34519;-73
2022/11/27 05:37:46;;;;;;;;;;;;;;;6.93;78.00;101719.50;5362234;32;35343;-73
2022/11/27 05:40:48;;;;;;;;;;;;;;;7.09;77.28;101715.13;5376174;32;34986;-63
2022/11/27 05:43:50;;;;;;;;;;;;;;;7.43;76.65;101710.59;5348888;32;35351;-62
2022/11/27 05:46:51;;;;;;;;;;;;;;;7.23;76.56;101710.69;5344667;32;35591;-72
2022/11/27 05:49:53;;;;;;;;;;;;;;;7.04;78.54;101706.41;5347859;32;35491;-74
2022/11/27 05:52:55;;;;;;;;;;;;;;;7.38;77.33;101701.91;5344350;32;36591;-62
2022/11/27 05:56:04;;;;;;;;;;;;;;;7.76;75.75;101703.44;5360938;32;35046;-63
2022/11/27 05:59:06;;;;;;;;;;;;;;;8.71;70.19;101694.81;5331904;32;45224;-73
2022/11/27 06:02:08;;;;;;;;;;;;;;;8.83;69.82;101707.78;5358842;32;35400;-62
2022/11/27 06:05:11;;;;;;;;;;;;;;;8.63;70.28;101701.00;5342396;32;35376;-63
2022/11/27 06:08:13;;;;;;;;;;;;;;;8.15;72.02;101704.87;5345171;32;34879;-62
2022/11/27 06:11:17;;;;;;;;;;;;;;;8.70;70.91;101707.03;5361655;32;35405;-74
2022/11/27 06:14:19;;;;;;;;;;;;;;;8.31;71.95;101705.63;5345621;32;34967;-64
2022/11/27 06:17:20;;;;;;;;;;;;;;;7.81;74.00;101718.22;5361022;32;35697;-73
2022/11/27 06:20:23;;;;;;;;;;;;;;;7.91;74.30;101718.16;5324273;32;35167;-62
2022/11/27 06:23:24;;;;;;;;;;;;;;;8.53;71.49;101707.19;5356436;32;35640;-64
2022/11/27 06:26:27;;;;;;;;;;;;;;;7.77;74.35;101713.00;5350286;32;35588;-74
2022/11/27 06:29:29;;;;;;;;;;;;;;;7.69;76.25;101733.12;5345612;32;35320;-62
2022/11/27 06:32:31;;;;;;;;;;;;;;;7.47;76.85;101735.88;5360182;32;43101;-61
2022/11/27 06:35:33;;;;;;;;;;;;;;;7.82;76.28;101734.78;5345179;32;35033;-72
2022/11/27 06:38:35;;;;;;;;;;;;;;;7.48;77.14;101740.22;5358007;32;34992;-63
2022/11/27 06:41:37;;;;;;;;;;;;;;;7.27;77.80;101737.69;5328760;32;34421;-63
2022/11/27 06:44:39;;;;;;;;;;;;;;;6.90;79.19;101729.97;5372690;32;35098;-73
2022/11/27 06:47:41;;;;;;;;;;;;;;;8.17;73.86;101731.06;5372643;32;35420;-63
2022/11/27 06:50:43;;;;;;;;;;;;;;;7.80;75.08;101742.66;5363363;32;35312;-73
2022/11/27 06:53:45;;;;;;;;;;;;;;;7.65;76.06;101736.62;5381965;32;35111;-62
2022/11/27 06:56:48;;;;;;;;;;;;;;;7.64;75.70;101741.00;5365484;32;35546;-73
2022/11/27 06:59:50;;;;;;;;;;;;;;;7.91;75.16;101744.34;5382651;32;35553;-71
2022/11/27 07:02:52;;;;;;;;;;;;;;;7.38;76.66;101748.97;5350873;32;34908;-73
2022/11/27 07:05:54;;;;;;;;;;;;;;;8.05;72.92;101753.84;5355042;32;34396;-73
2022/11/27 07:08:56;;;;;;;;;;;;;;;7.63;75.92;101754.09;5340949;32;35258;-74
2022/11/27 07:11:58;;;;;;;;;;;;;;;7.62;76.60;101749.75;5346957;32;34251;-63
2022/11/27 07:15:00;;;;;;;;;;;;;;;7.59;75.96;101740.16;5363128;32;35279;-63
2022/11/27 07:18:05;;;;;;;;;;;;;;;7.75;75.23;101738.34;5346560;32;45116;-73
2022/11/27 07:21:07;;;;;;;;;;;;;;;7.42;77.32;101742.88;5340059;32;34379;-62
2022/11/27 07:24:08;;;;;;;;;;;;;;;7.41;77.54;101741.13;5347477;32;35583;-73
2022/11/27 07:27:10;;;;;;;;;;;;;;;7.30;76.49;101740.31;5353782;32;35602;-73
2022/11/27 07:30:12;;;;;;;;;;;;;;;7.02;77.71;101750.00;5356606;32;35136;-74
2022/11/27 07:33:14;;;;;;;;;;;;;;;8.06;74.35;101750.34;5345866;32;35545;-64
2022/11/27 07:36:17;;;;;;;;;;;;;;;7.33;76.50;101761.19;5362553;32;34697;-62
2022/11/27 07:39:19;;;;;;;;;;;;;;;7.96;74.44;101755.66;5316979;32;34625;-61
2022/11/27 07:42:41;;;;;;;;;;;;;;;8.17;74.05;101758.09;5362626;32;34727;-62
2022/11/27 07:45:43;;;;;;;;;;;;;;;7.47;74.88;101755.91;5365590;32;35353;-63
2022/11/27 07:48:45;;;;;;;;;;;;;;;7.83;75.42;101750.50;5365041;32;35037;-73
2022/11/27 07:51:46;;;;;;;;;;;;;;;8.10;74.19;101752.03;5381218;32;35457;-62
2022/11/27 07:54:48;;;;;;;;;;;;;;;8.94;69.69;101750.47;5365971;32;34399;-63
2022/11/27 07:57:50;;;;;;;;;;;;;;;8.69;70.10;101762.94;5381455;32;34821;-63
2022/11/27 08:00:52;;;;;;;;;;;;;;;7.86;73.10;101763.56;5363976;32;35211;-73
2022/11/27 08:03:54;;;;;;;;;;;;;;;7.53;75.59;101761.09;5359069;32;35695;-63
2022/11/27 08:06:57;;;;;;;;;;;;;;;7.58;75.53;101747.12;5347070;32;35386;-73
2022/11/27 08:09:59;;;;;;;;;;;;;;;7.83;76.11;101755.72;5346362;32;35948;-63
2022/11/27 08:13:01;;;;;;;;;;;;;;;9.01;70.08;101743.38;5361633;32;44636;-73
2022/11/27 08:16:02;;;;;;;;;;;;;;;8.57;71.66;101744.75;5346798;32;34375;-74
2022/11/27 08:19:04;;;;;;;;;;;;;;;9.27;68.73;101724.72;5348551;32;34414;-74
2022/11/27 08:22:13;;;;;;;;;;;;;;;8.57;70.72;101736.88;5337571;32;35780;-73
2022/11/27 08:25:15;;;;;;;;;;;;;;;8.39;72.72;101744.00;5344488;32;34318;-64
2022/11/27 08:28:16;;;;;;;;;;;;;;;7.87;73.55;101740.88;5349781;32;34715;-73
2022/11/27 08:31:21;;;;;;;;;;;;;;;9.04;69.56;101743.38;5346577;32;35472;-63
2022/11/27 08:34:25;;;;;;;;;;;;;;;7.85;73.15;101755.69;5361633;32;34863;-62
2022/11/27 08:37:27;;;;;;;;;;;;;;;8.30;71.82;101756.25;5343702;32;35306;-71
2022/11/27 08:40:29;;;;;;;;;;;;;;;8.37;71.22;101771.09;5358578;32;34921;-73
2022/11/27 08:43:31;;;;;;;;;;;;;;;7.91;75.00;101774.00;5358973;32;46594;-72
2022/11/27 08:46:33;;;;;;;;;;;;;;;8.66;70.96;101771.72;5361690;32;35202;-63
2022/11/27 08:49:35;;;;;;;;;;;;;;;8.39;72.65;101777.19;5370937;32;33233;-62
2022/11/27 08:52:42;;;;;;;;;;;;;;;8.30;73.27;101775.47;5364255;32;35156;-74
2022/11/27 08:55:44;;;;;;;;;;;;;;;8.09;72.39;101773.88;5380232;32;35012;-76
2022/11/27 08:58:45;;;;;;;;;;;;;;;7.85;73.87;101777.50;5364581;32;35755;-73
2022/11/27 09:01:47;;;;;;;;;;;;;;;8.26;73.87;101768.53;5380732;32;35475;-75
2022/11/27 09:04:49;;;;;;;;;;;;;;;7.79;76.40;101772.34;5350174;32;35405;-73
2022/11/27 09:07:51;;;;;;;;;;;;;;;7.98;75.22;101777.44;5352926;32;35970;-63
2022/11/27 09:10:53;;;;;;;;;;;;;;;8.13;74.24;101774.75;5355380;32;33906;-72
2022/11/27 09:13:55;;;;;;;;;;;;;;;7.99;74.12;101763.50;5332464;32;35121;-71
2022/11/27 09:16:57;;;;;;;;;;;;;;;7.95;73.52;101780.97;5361145;32;35471;-63
2022/11/27 09:19:59;;;;;;;;;;;;;;;8.54;71.91;101784.06;5326007;32;35359;-63
2022/11/27 09:23:01;;;;;;;;;;;;;;;8.44;71.10;101787.62;5361036;32;38250;-63
2022/11/27 09:26:04;;;;;;;;;;;;;;;8.17;71.87;101792.16;5345483;32;34471;-62
2022/11/27 09:29:06;;;;;;;;;;;;;;;7.77;75.46;101789.78;5352016;32;34979;-75
2022/11/27 09:32:08;;;;;;;;;;;;;;;7.92;74.52;101786.22;5355416;32;35630;-63
2022/11/27 09:35:09;;;;;;;;;;;;;;;8.39;73.03;101793.78;5358418;32;35080;-63
2022/11/27 09:38:11;;;;;;;;;;;;;;;8.43;72.96;101793.75;5377372;32;35559;-63
2022/11/27 09:41:25;;;;;;;;;;;;;;;8.16;73.90;101793.03;5360206;32;35078;-73
2022/11/27 09:44:30;;;;;;;;;;;;;;;7.90;72.97;101779.25;5358143;32;35457;-63
2022/11/27 09:47:37;;;;;;;;;;;;;;;9.02;69.91;101776.63;5346002;32;46962;-63
2022/11/27 09:50:49;;;;;;;;;;;;;;;8.79;70.35;101772.47;5343367;32;34276;-63
2022/11/27 09:53:51;;;;;;;;;;;;;;;9.57;67.46;101768.09;5362086;32;35647;-62
2022/11/27 09:56:54;;;;;;;;;;;;;;;8.44;71.31;101769.28;5345904;32;35433;-62
2022/11/27 09:59:56;;;;;;;;;;;;;;;8.13;74.64;101761.66;5337078;32;34412;-63
2022/11/27 10:02:58;;;;;;;;;;;;;;;8.12;73.80;101773.00;5331530;32;35180;-73
2022/11/27 10:06:03;;;;;;;;;;;;;;;7.89;74.68;101765.28;5357117;32;35640;-73
2022/11/27 10:09:11;;;;;;;;;;;;;;;8.03;74.82;101760.81;5351577;32;44701;-62
2022/11/27 10:12:17;;;;;;;;;;;;;;;8.56;72.13;101756.94;5346129;32;35399;-74
2022/11/27 10:15:39;;;;;;;;;;;;;;;8.89;71.37;101747.03;5348112;32;34446;-73
2022/11/27 10:18:46;;;;;;;;;;;;;;;9.44;68.02;101754.25;5341994;32;35573;-73
2022/11/27 10:21:51;;;;;;;;;;;;;;;9.73;66.19;101757.38;5368451;32;33541;-72
2022/11/27 10:24:56;;;;;;;;;;;;;;;8.07;72.41;101752.09;5369910;32;34339;-64
2022/11/27 10:28:11;;;;;;;;;;;;;;;7.93;75.26;101750.44;5367236;32;35711;-64
2022/11/27 10:31:13;;;;;;;;;;;;;;;8.37;73.72;101743.16;5382541;32;35066;-64
2022/11/27 10:34:27;;;;;;;;;;;;;;;8.25;73.23;101747.59;5364667;32;35825;-62
2022/11/27 10:37:30;;;;;;;;;;;;;;;8.18;74.79;101749.41;5366556;32;34521;-73
2022/11/27 10:40:49;;;;;;;;;;;;;;;8.40;73.33;101742.25;5361272;32;44995;-73
2022/11/27 10:43:52;;;;;;;;;;;;;;;8.81;71.16;101738.37;5338229;32;34504;-75
2022/11/27 10:46:55;;;;;;;;;;;;;;;8.86;70.24;101732.19;5349845;32;34931;-62
2022/11/27 10:49:58;;;;;;;;;;;;;;;8.86;69.52;101731.31;5346107;32;35191;-64
2022/11/27 10:53:01;;;;;;;;;;;;;;;8.13;73.33;101732.84;5363890;32;35311;-73
2022/11/27 10:56:03;;;;;;;;;;;;;;;8.70;71.30;101722.75;5327092;32;44779;-73
2022/11/27 10:59:05;;;;;;;;;;;;;;;8.94;70.92;101726.84;5338585;32;35332;-62
2022/11/27 11:02:24;;;;;;;;;;;;;;;8.05;73.30;101724.16;5341214;32;37426;-63
2022/11/27 11:05:26;;;;;;;;;;;;;;;8.01;74.48;101719.84;5330546;32;34989;-62
2022/11/27 11:08:59;;;;;;;;;;;;;;;8.74;71.67;101713.97;5354517;32;34853;-73
2022/11/27 11:12:12;;;;;;;;;;;;;;;8.12;74.24;101700.56;5331751;32;44505;-63
2022/11/27 11:15:14;;;;;;;;;;;;;;;8.90;71.73;101712.06;5336465;32;35624;-73
2022/11/27 11:18:20;;;;;;;;;;;;;;;8.03;74.29;101708.47;5356637;32;35489;-62
2022/11/27 11:21:32;;;;;;;;;;;;;;;7.87;75.79;101693.75;5317781;32;35155;-73
2022/11/27 11:24:34;;;;;;;;;;;;;;;8.62;73.68;101695.75;5363725;32;44756;-73
2022/11/27 11:27:36;;;;;;;;;;;;;;;8.65;71.39;101693.09;5344859;32;34592;-74
2022/11/27 11:30:38;;;;;;;;;;;;;;;8.62;72.19;101694.00;5348295;32;35500;-62
2022/11/27 11:33:51;;;;;;;;;;;;;;;8.87;71.97;101693.72;5349683;32;34818;-74
2022/11/27 11:37:01;;;;;;;;;;;;;;;8.10;74.01;101696.19;5332191;32;34926;-73
2022/11/27 11:40:07;;;;;;;;;;;;;;;8.32;73.60;101686.41;5344713;32;44607;-63
2022/11/27 11:43:26;;;;;;;;;;;;;;;8.98;72.36;101680.50;5345645;32;35062;-64
2022/11/27 11:46:29;;;;;;;;;;;;;;;7.91;74.01;101681.50;5380655;32;34325;-73
2022/11/27 11:49:32;;;;;;;;;;;;;;;7.71;76.36;101677.28;5351519;32;44915;-63
2022/11/27 11:52:40;;;;;;;;;;;;;;;7.96;76.34;101677.97;5352180;32;35566;-73
2022/11/27 11:55:56;;;;;;;;;;;;;;;8.66;72.45;101661.63;5354604;32;35092;-73
2022/11/27 11:58:58;;;;;;;;;;;;;;;8.86;70.00;101656.16;5350423;32;35513;-63
2022/11/27 12:02:23;;;;;;;;;;;;;;;7.92;74.15;101647.47;5381860;32;34849;-64
2022/11/27 12:05:28;;;;;;;;;;;;;;;8.56;72.60;101659.97;5348616;32;34467;-74
2022/11/27 12:08:49;;;;;;;;;;;;;;;8.45;72.11;101659.25;5345803;32;35795;-72
2022/11/27 12:11:54;;;;;;;;;;;;;;;7.98;74.99;101657.00;5362352;32;35286;-63
2022/11/27 12:15:02;;;;;;;;;;;;;;;9.00;70.85;101652.50;5332024;32;35476;-63
2022/11/27 12:18:04;;;;;;;;;;;;;;;8.05;74.59;101648.22;5360070;32;47855;-74
2022/11/27 12:21:12;;;;;;;;;;;;;;;7.69;76.92;101652.88;5324571;32;35032;-73
2022/11/27 12:24:17;;;;;;;;;;;;;;;7.91;75.36;101650.09;5347755;32;35221;-73
2022/11/27 12:27:18;;;;;;;;;;;;;;;8.78;71.40;101642.28;5362585;32;35041;-65
2022/11/27 12:30:21;;;;;;;;;;;;;;;8.87;70.85;101643.91;5345701;32;35447;-63
2022/11/27 12:33:35;;;;;;;;;;;;;;;9.33;68.98;101645.94;5348016;32;34964;-73
2022/11/27 12:36:45;;;;;;;;;;;;;;;9.31;68.01;101640.72;5344379;32;45238;-75
2022/11/27 12:40:10;;;;;;;;;;;;;;;8.33;70.76;101643.63;5349620;32;34206;-62
2022/11/27 12:43:23;;;;;;;;;;;;;;;9.03;69.86;101642.84;5367687;32;35380;-64
2022/11/27 12:46:27;;;;;;;;;;;;;;;8.84;69.10;101639.59;5364058;32;35023;-62
2022/11/27 12:49:29;;;;;;;;;;;;;;;9.10;68.28;101635.78;5367117;32;34900;-73
2022/11/27 12:52:37;;;;;;;;;;;;;;;9.19;69.17;101633.87;5363069;32;44625;-62
2022/11/27 12:55:39;;;;;;;;;;;;;;;9.75;66.80;101634.81;5373249;32;34240;-74
2022/11/27 12:58:43;;;;;;;;;;;;;;;9.25;66.96;101629.44;5371446;32;34632;-74
2022/11/27 13:01:46;;;;;;;;;;;;;;;8.74;70.70;101631.84;5350070;32;35521;-62
2022/11/27 13:04:48;;;;;;;;;;;;;;;9.21;68.89;101637.37;5354291;32;35543;-73
2022/11/27 13:07:56;;;;;;;;;;;;;;;9.37;67.57;101637.16;5344401;32;33729;-74
2022/11/27 13:11:07;;;;;;;;;;;;;;;9.72;66.04;101628.72;5361930;32;35099;-63
2022/11/27 13:14:10;;;;;;;;;;;;;;;8.76;69.22;101630.97;5331029;32;44682;-72
2022/11/27 13:17:15;;;;;;;;;;;;;;;8.71;69.71;101624.91;5297984;32;855588;-62
2022/11/27 13:20:18;;;;;;;;;;;;;;;9.74;65.82;101612.09;5325814;32;34887;-74
2022/11/27 13:23:20;;;;;;;;;;;;;;;9.52;66.21;101615.06;5331207;32;34875;-63
2022/11/27 13:26:23;;;;;;;;;;;;;;;9.62;65.86;101616.66;5362591;32;34436;-73
2022/11/27 13:29:28;;;;;;;;;;;;;;;9.54;65.36;101608.91;5331204;32;34685;-62
2022/11/27 13:32:31;;;;;;;;;;;;;;;9.60;65.22;101613.19;5347834;32;34701;-72
2022/11/27 13:35:33;;;;;;;;;;;;;;;10.00;64.20;101608.16;5346458;32;44752;-61
2022/11/27 13:38:37;;;;;;;;;;;;;;;9.84;64.20;101612.78;5342223;32;34789;-62
2022/11/27 13:41:39;;;;;;;;;;;;;;;9.83;64.58;101618.06;5345351;32;35601;-73
2022/11/27 13:44:42;;;;;;;;;;;;;;;9.67;64.96;101610.44;5361415;32;34119;-62
2022/11/27 13:47:44;;;;;;;;;;;;;;;9.84;64.44;101618.03;5366633;32;34452;-74
2022/11/27 13:50:46;;;;;;;;;;;;;;;9.70;65.30;101615.63;5362810;32;35100;-63
2022/11/27 13:53:48;;;;;;;;;;;;;;;8.72;69.12;101615.28;5364445;32;34615;-72
2022/11/27 13:56:50;;;;;;;;;;;;;;;7.62;74.23;101621.53;5366108;32;35216;-73
2022/11/27 13:59:55;;;;;;;;;;;;;;;8.94;69.07;101625.47;5349573;32;34781;-62
2022/11/27 14:02:57;;;;;;;;;;;;;;;8.82;69.46;101622.12;5380142;32;35036;-62
2022/11/27 14:05:59;;;;;;;;;;;;;;;9.65;65.50;101611.34;5343355;32;35191;-62
2022/11/27 14:09:02;;;;;;;;;;;;;;;8.63;69.09;101622.38;5359006;32;44517;-73
2022/11/27 14:12:23;;;;;;;;;;;;;;;8.66;69.98;101622.31;5331930;32;35494;-64
2022/11/27 14:15:25;;;;;;;;;;;;;;;8.90;70.02;101621.16;5349115;32;35597;-63
2022/11/27 14:18:27;;;;;;;;;;;;;;;9.06;68.76;101616.56;5323433;32;35133;-74
2022/11/27 14:21:37;;;;;;;;;;;;;;;9.57;67.10;101614.09;5316992;32;34726;-74
2022/11/27 14:24:42;;;;;;;;;;;;;;;9.33;66.21;101620.56;5347283;32;45078;-63
2022/11/27 14:27:45;;;;;;;;;;;;;;;9.30;67.74;101622.38;5330843;32;34317;-74
2022/11/27 14:30:48;;;;;;;;;;;;;;;9.38;66.88;101617.88;5346354;32;36567;-63
2022/11/27 14:33:49;;;;;;;;;;;;;;;9.92;64.55;101620.56;5345566;32;35456;-72
2022/11/27 14:37:24;;;;;;;;;;;;;;;9.78;65.06;101615.50;5330358;32;35960;-62
2022/11/27 14:40:26;;;;;;;;;;;;;;;9.77;64.96;101624.28;5356727;32;35200;-64
2022/11/27 14:43:28;;;;;;;;;;;;;;;8.86;68.19;101622.06;5343664;32;35717;-74
2022/11/27 14:46:31;;;;;;;;;;;;;;;8.67;70.60;101631.91;5360818;32;34347;-73
2022/11/27 14:49:33;;;;;;;;;;;;;;;8.30;71.43;101627.91;5329230;32;43488;-62
2022/11/27 14:52:35;;;;;;;;;;;;;;;8.12;72.72;101635.09;5344973;32;35798;-74
2022/11/27 14:55:37;;;;;;;;;;;;;;;9.27;68.24;101632.91;5359420;32;35146;-64
2022/11/27 14:58:39;;;;;;;;;;;;;;;9.16;67.86;101627.81;5328437;32;36172;-73
2022/11/27 15:01:41;;;;;;;;;;;;;;;9.64;65.93;101633.25;5348252;32;34947;-62
2022/11/27 15:04:43;;;;;;;;;;;;;;;8.84;68.01;101634.34;5345775;32;34768;-73
2022/11/27 15:07:45;;;;;;;;;;;;;;;9.41;66.71;101644.09;5363501;32;34691;-74
2022/11/27 15:10:52;;;;;;;;;;;;;;;9.37;66.89;101640.63;5333264;32;35028;-72
2022/11/27 15:13:55;;;;;;;;;;;;;;;8.75;68.97;101630.94;5347627;32;35579;-75
2022/11/27 15:16:57;;;;;;;;;;;;;;;8.89;69.20;101634.31;5349452;32;35039;-63
2022/11/27 15:19:59;;;;;;;;;;;;;;;9.09;67.63;101644.53;5326368;32;34295;-63
2022/11/27 15:23:01;;;;;;;;;;;;;;;8.81;67.66;101649.22;5348334;32;46171;-72
2022/11/27 15:26:09;;;;;;;;;;;;;;;8.72;69.90;101644.97;5347255;32;33620;-72
2022/11/27 15:29:35;;;;;;;;;;;;;;;8.09;73.11;101645.56;5345680;32;35591;-73
2022/11/27 15:32:50;;;;;;;;;;;;;;;9.16;68.09;101639.19;5358198;32;45912;-74
2022/11/27 15:35:53;;;;;;;;;;;;;;;8.22;70.89;101640.22;5327458;32;34266;-74
2022/11/27 15:39:02;;;;;;;;;;;;;;;8.22;71.01;101637.59;5359519;32;34300;-75
2022/11/27 15:42:07;;;;;;;;;;;;;;;8.94;68.17;101642.94;5340625;32;44438;-73
2022/11/27 15:45:09;;;;;;;;;;;;;;;8.26;70.63;101634.94;5373464;32;35344;-63
2022/11/27 15:48:16;;;;;;;;;;;;;;;8.49;69.76;101645.22;5356030;32;35603;-73
2022/11/27 15:51:18;;;;;;;;;;;;;;;8.71;69.14;101635.38;5363986;32;35530;-64
2022/11/27 15:54:20;;;;;;;;;;;;;;;8.66;68.78;101639.81;5378756;32;35401;-66
2022/11/27 15:57:23;;;;;;;;;;;;;;;9.02;67.67;101635.88;5361624;32;35161;-74
2022/11/27 16:00:25;;;;;;;;;;;;;;;8.08;70.48;101641.22;5381557;32;34911;-72